SPQU/AQP METAR and TAF weather

Enter ICAO airport designator
Station Type Date Time Source
SPQU METAR 2019/02/20 18:00 UTC NOAA

SPQU 201800Z 25011KT 210V290 9999 FEW030 SCT060 19/11 Q1026 NOSIG RMK PP000


Station Type Date Time Source
SPQU Decoded METAR 2019/02/20 18:00 UTC NOAA

Arequipa, Peru (SPQU) 16-19S 071-33W 2539M
Feb 20, 2019 - 01:00 PM EST / 2019.02.20 1800 UTC
Wind: from the WSW (250 degrees) at 13 MPH (11 KT) (direction variable):0
Visibility: greater than 7 mile(s):0
Sky conditions: partly cloudy
Temperature: 66 F (19 C)
Dew Point: 51 F (11 C)
Relative Humidity: 59%
Pressure (altimeter): 30.30 in. Hg (1026 hPa)
ob: SPQU 201800Z 25011KT 210V290 9999 FEW030 SCT060 19/11 Q1026 NOSIG RMK PP000
cycle: 18

Station Type Date Time Source
SPQU TAF 2019/02/20 18:37 UTC NOAA

TAF SPQU 201700Z 2018/2118 27010KT 9999 SCT015 BKN030 TX19/2019Z TN11/2110Z
BECMG 2020/2023 0800 RA FG OVC001
BECMG 2104/2106 05004KT 5000 BR SCT005 BKN010
FM211200 VRB03KT 8000 BKN060
BECMG 2114/2116 25010KT 9999 SCT050 SCT080


Example: see airport list